Time;durP1;ratioP1;P1;durP2;ratioP2;P2;SDS_P1;SDS_P2;PMS_P1;PMS_P2;Temp;Humidity;BMP_temperature;BMP_pressure;BME280_temperature;BME280_humidity;BME280_pressure;Samples;Min_cycle;Max_cycle;Signal;HPM_P1;HPM_P2
2020/12/24 00:02:02;;;;;;;8.83;1.83;;;;;;;;;;5041526;28;20460;-89
2020/12/24 00:04:28;;;;;;;9.43;2.13;;;;;;;;;;5043763;28;20427;-89
2020/12/24 00:06:54;;;;;;;5.03;1.77;;;;;;;;;;5038403;28;20226;-87
2020/12/24 00:09:20;;;;;;;10.70;2.47;;;;;;;;;;5014511;28;20449;-88
2020/12/24 00:11:46;;;;;;;9.57;1.73;;;;;;;;;;5023162;28;20185;-89
2020/12/24 00:14:12;;;;;;;15.50;2.90;;;;;;;;;;5021594;28;20238;-90
2020/12/24 00:16:38;;;;;;;5.10;1.47;;;;;;;;;;5024998;28;20887;-91
2020/12/24 00:19:04;;;;;;;7.00;2.00;;;;;;;;;;5040162;28;20452;-92
2020/12/24 00:21:35;;;;;;;8.82;2.00;;;;;;;;;;5019348;28;20182;-90
2020/12/24 00:24:01;;;;;;;9.82;2.15;;;;;;;;;;5041425;28;20689;-89
2020/12/24 00:26:27;;;;;;;10.83;1.70;;;;;;;;;;5041342;28;20182;-89
2020/12/24 00:28:53;;;;;;;7.83;2.53;;;;;;;;;;5037019;28;20472;-89
2020/12/24 00:31:19;;;;;;;5.50;1.70;;;;;;;;;;5025671;28;20428;-90
2020/12/24 00:33:45;;;;;;;8.63;1.42;;;;;;;;;;5036645;28;20519;-86
2020/12/24 00:36:11;;;;;;;5.00;1.33;;;;;;;;;;5027412;28;20174;-91
2020/12/24 00:38:37;;;;;;;11.27;1.92;;;;;;;;;;5042025;28;20444;-92
2020/12/24 00:41:03;;;;;;;10.20;2.30;;;;;;;;;;5024031;28;20186;-90
2020/12/24 00:43:29;;;;;;;9.33;2.03;;;;;;;;;;5024626;28;20436;-92
2020/12/24 00:45:55;;;;;;;5.07;1.83;;;;;;;;;;5039730;28;20446;-94
2020/12/24 00:48:20;;;;;;;5.60;1.95;;;;;;;;;;5023296;28;20441;-89
2020/12/24 00:50:46;;;;;;;9.70;2.07;;;;;;;;;;5051916;28;20185;-90
2020/12/24 00:53:12;;;;;;;4.73;1.73;;;;;;;;;;5025632;28;20528;-88
2020/12/24 00:55:38;;;;;;;5.43;1.90;;;;;;;;;;5028366;28;21019;-90
2020/12/24 00:58:07;;;;;;;14.27;2.33;;;;;;;;;;5039538;28;20452;-93
2020/12/24 01:00:33;;;;;;;6.50;1.60;;;;;;;;;;5035538;28;20456;-91
2020/12/24 01:02:58;;;;;;;7.18;2.10;;;;;;;;;;5019425;28;20601;-87
2020/12/24 01:05:35;;;;;;;5.70;1.50;;;;;;;;;;5029252;28;20334;-95
2020/12/24 01:08:04;;;;;;;13.43;2.90;;;;;;;;;;5026093;28;20448;-93
2020/12/24 01:10:33;;;;;;;9.20;1.77;;;;;;;;;;5024731;28;20643;-92
2020/12/24 01:12:59;;;;;;;10.20;2.55;;;;;;;;;;5015891;28;20251;-92
2020/12/24 01:15:25;;;;;;;6.83;1.60;;;;;;;;;;5023664;28;20406;-89
2020/12/24 01:17:51;;;;;;;3.13;1.40;;;;;;;;;;5026933;28;20438;-92
2020/12/24 01:20:17;;;;;;;4.30;1.25;;;;;;;;;;5043034;28;20186;-85
2020/12/24 01:22:53;;;;;;;6.88;2.00;;;;;;;;;;5039303;28;20178;-92
2020/12/24 01:25:19;;;;;;;5.20;1.27;;;;;;;;;;5025373;28;20197;-90
2020/12/24 01:27:45;;;;;;;2.92;1.00;;;;;;;;;;5022617;28;20194;-87
2020/12/24 01:30:11;;;;;;;6.30;1.20;;;;;;;;;;5021292;28;20187;-85
2020/12/24 01:32:37;;;;;;;4.85;1.17;;;;;;;;;;5024243;28;20177;-90
2020/12/24 01:35:06;;;;;;;2.00;1.10;;;;;;;;;;5026021;28;20694;-90
2020/12/24 01:37:43;;;;;;;4.38;1.10;;;;;;;;;;5025348;28;20209;-91
2020/12/24 01:40:09;;;;;;;6.93;1.40;;;;;;;;;;5027396;28;20178;-86
2020/12/24 01:42:35;;;;;;;3.50;1.00;;;;;;;;;;5023798;28;20189;-90
2020/12/24 01:45:05;;;;;;;4.75;1.00;;;;;;;;;;5027372;28;20192;-93
2020/12/24 01:47:37;;;;;;;2.97;0.80;;;;;;;;;;5051040;28;20186;-93
2020/12/24 01:50:04;;;;;;;4.85;1.08;;;;;;;;;;5021879;28;20192;-88
2020/12/24 01:52:34;;;;;;;5.18;1.10;;;;;;;;;;5039486;28;20178;-91
2020/12/24 01:55:01;;;;;;;2.70;0.65;;;;;;;;;;5024751;28;20304;-91
2020/12/24 01:57:27;;;;;;;2.85;0.65;;;;;;;;;;5018977;28;20183;-88
2020/12/24 01:59:57;;;;;;;2.03;0.80;;;;;;;;;;5023519;28;20194;-90
2020/12/24 02:02:42;;;;;;;2.45;0.70;;;;;;;;;;5023352;28;20181;-92
2020/12/24 02:05:23;;;;;;;4.78;0.93;;;;;;;;;;5022373;28;20192;-92
2020/12/24 02:07:51;;;;;;;1.83;0.60;;;;;;;;;;5026752;28;20190;-89
2020/12/24 02:10:24;;;;;;;12.73;1.60;;;;;;;;;;5026896;28;20189;-93
2020/12/24 02:12:59;;;;;;;3.53;0.90;;;;;;;;;;5044082;28;20197;-91
2020/12/24 02:15:50;;;;;;;0.93;0.80;;;;;;;;;;5035609;28;20237;-87
2020/12/24 02:18:16;;;;;;;1.45;0.50;;;;;;;;;;5018167;28;20218;-87
2020/12/24 02:20:43;;;;;;;3.55;0.82;;;;;;;;;;5020899;28;20182;-89
2020/12/24 02:23:09;;;;;;;1.85;0.60;;;;;;;;;;5020717;28;20230;-89
2020/12/24 02:25:35;;;;;;;1.05;0.50;;;;;;;;;;5024360;28;20171;-87
2020/12/24 02:28:01;;;;;;;1.60;0.60;;;;;;;;;;5018406;28;20179;-88
2020/12/24 02:30:27;;;;;;;1.75;0.55;;;;;;;;;;5016595;28;20440;-86
2020/12/24 02:32:55;;;;;;;0.97;0.60;;;;;;;;;;5023144;28;20255;-89
2020/12/24 02:35:21;;;;;;;3.35;0.73;;;;;;;;;;5038411;28;20497;-89
2020/12/24 02:37:47;;;;;;;2.55;0.60;;;;;;;;;;5033789;28;20182;-88
2020/12/24 02:40:13;;;;;;;2.10;0.60;;;;;;;;;;5020958;28;20193;-92
2020/12/24 02:42:39;;;;;;;2.20;0.65;;;;;;;;;;5022350;28;20446;-92
2020/12/24 02:45:05;;;;;;;2.45;0.80;;;;;;;;;;5022184;28;20198;-89
2020/12/24 02:47:31;;;;;;;0.80;0.60;;;;;;;;;;5024467;28;20224;-91
2020/12/24 02:49:58;;;;;;;0.93;0.63;;;;;;;;;;5034015;28;20202;-88
2020/12/24 02:52:27;;;;;;;1.88;0.57;;;;;;;;;;5040094;28;20220;-88
2020/12/24 02:54:53;;;;;;;0.82;0.50;;;;;;;;;;5016728;28;20205;-88
2020/12/24 02:57:19;;;;;;;3.22;0.60;;;;;;;;;;5033551;28;20258;-93
2020/12/24 02:59:45;;;;;;;4.10;0.70;;;;;;;;;;5036932;28;20185;-91
2020/12/24 03:02:11;;;;;;;0.60;0.60;;;;;;;;;;5019891;28;20191;-89
2020/12/24 03:04:37;;;;;;;0.93;0.50;;;;;;;;;;5024253;28;20421;-90
2020/12/24 03:07:03;;;;;;;3.83;0.60;;;;;;;;;;5020856;28;20504;-91
2020/12/24 03:09:29;;;;;;;1.88;0.80;;;;;;;;;;5017219;28;20204;-91
2020/12/24 03:11:55;;;;;;;0.40;0.40;;;;;;;;;;5021483;28;20191;-90
2020/12/24 03:14:21;;;;;;;0.60;0.40;;;;;;;;;;5037358;28;20293;-91
2020/12/24 03:16:50;;;;;;;1.90;0.50;;;;;;;;;;5033299;28;20234;-90
2020/12/24 03:19:16;;;;;;;0.80;0.50;;;;;;;;;;5019600;28;20191;-92
2020/12/24 03:21:43;;;;;;;1.73;0.75;;;;;;;;;;5020840;28;20204;-90
2020/12/24 03:24:09;;;;;;;1.40;0.50;;;;;;;;;;5038141;28;20186;-91
2020/12/24 03:26:35;;;;;;;0.65;0.52;;;;;;;;;;5033609;28;20199;-89
2020/12/24 03:29:01;;;;;;;1.48;0.50;;;;;;;;;;5036744;28;20190;-91
2020/12/24 03:31:31;;;;;;;0.50;0.40;;;;;;;;;;5033875;28;20198;-90
2020/12/24 03:33:57;;;;;;;0.57;0.50;;;;;;;;;;5038140;28;20743;-90
2020/12/24 03:36:23;;;;;;;1.13;0.60;;;;;;;;;;5015058;28;20250;-90
2020/12/24 03:38:49;;;;;;;2.05;0.50;;;;;;;;;;5020365;28;20199;-92
2020/12/24 03:41:15;;;;;;;1.30;0.40;;;;;;;;;;5037795;28;20181;-89
2020/12/24 03:43:41;;;;;;;0.50;0.40;;;;;;;;;;5020094;28;20179;-91
2020/12/24 03:46:07;;;;;;;1.45;0.40;;;;;;;;;;5020732;28;20180;-90
2020/12/24 03:48:33;;;;;;;0.60;0.57;;;;;;;;;;5032003;28;20190;-91
2020/12/24 03:50:59;;;;;;;1.02;0.93;;;;;;;;;;5034669;28;20183;-91
2020/12/24 03:53:26;;;;;;;1.30;0.70;;;;;;;;;;5018505;28;20197;-91
2020/12/24 03:55:52;;;;;;;1.55;0.68;;;;;;;;;;5035823;28;20198;-92
2020/12/24 03:58:18;;;;;;;0.88;0.60;;;;;;;;;;5037784;28;20666;-88
2020/12/24 04:00:44;;;;;;;1.55;0.98;;;;;;;;;;5033274;28;20178;-92
2020/12/24 04:03:10;;;;;;;1.80;0.80;;;;;;;;;;5021720;28;20205;-89
2020/12/24 04:05:36;;;;;;;0.60;0.60;;;;;;;;;;5021821;28;20433;-88
2020/12/24 04:08:06;;;;;;;1.05;0.50;;;;;;;;;;5037425;28;20442;-91
2020/12/24 04:10:32;;;;;;;0.52;0.40;;;;;;;;;;5022333;28;20186;-90
2020/12/24 04:12:58;;;;;;;0.60;0.50;;;;;;;;;;5017582;28;20191;-91
2020/12/24 04:15:25;;;;;;;2.05;0.68;;;;;;;;;;5021461;28;20244;-91
2020/12/24 04:17:51;;;;;;;0.75;0.60;;;;;;;;;;5021173;28;20656;-90
2020/12/24 04:20:17;;;;;;;1.40;0.40;;;;;;;;;;5038311;28;20198;-92
2020/12/24 04:22:43;;;;;;;0.47;0.43;;;;;;;;;;5026382;28;20174;-90
2020/12/24 04:25:09;;;;;;;14.40;1.53;;;;;;;;;;5026770;28;20429;-89
2020/12/24 04:27:35;;;;;;;0.53;0.50;;;;;;;;;;5023749;28;20477;-89
2020/12/24 04:30:01;;;;;;;0.93;0.40;;;;;;;;;;5022833;28;20437;-89
2020/12/24 04:32:27;;;;;;;2.15;0.52;;;;;;;;;;5022563;28;20191;-90
2020/12/24 04:34:53;;;;;;;0.50;0.50;;;;;;;;;;5020753;28;20757;-90
2020/12/24 04:37:19;;;;;;;0.65;0.57;;;;;;;;;;5026739;28;20208;-89
2020/12/24 04:39:46;;;;;;;0.40;0.40;;;;;;;;;;5036016;28;20682;-90
2020/12/24 04:42:14;;;;;;;1.48;0.60;;;;;;;;;;5024282;28;20186;-89
2020/12/24 04:44:41;;;;;;;0.70;0.47;;;;;;;;;;5031459;28;20202;-90
2020/12/24 04:47:07;;;;;;;2.45;0.50;;;;;;;;;;5042154;28;20183;-90
2020/12/24 04:49:34;;;;;;;0.63;0.55;;;;;;;;;;5025123;28;20183;-89
2020/12/24 04:52:01;;;;;;;0.85;0.63;;;;;;;;;;5020940;28;20193;-91
2020/12/24 04:54:27;;;;;;;0.40;0.40;;;;;;;;;;5042024;28;20206;-90
2020/12/24 04:56:53;;;;;;;2.15;0.60;;;;;;;;;;5040475;28;20190;-91
2020/12/24 04:59:19;;;;;;;0.88;0.60;;;;;;;;;;5040363;28;20287;-91
2020/12/24 05:01:52;;;;;;;0.60;0.50;;;;;;;;;;5036236;28;20178;-90
2020/12/24 05:04:18;;;;;;;0.60;0.60;;;;;;;;;;5042664;28;20250;-91
2020/12/24 05:06:44;;;;;;;0.60;0.60;;;;;;;;;;5025512;28;20183;-91
2020/12/24 05:09:10;;;;;;;0.60;0.60;;;;;;;;;;5021643;28;20531;-91
2020/12/24 05:11:37;;;;;;;0.60;0.60;;;;;;;;;;5026230;28;20197;-92
2020/12/24 05:14:21;;;;;;;0.98;0.60;;;;;;;;;;5019228;28;20253;-90
2020/12/24 05:17:00;;;;;;;1.83;0.90;;;;;;;;;;5030200;28;20181;-92
2020/12/24 05:19:27;;;;;;;1.05;0.60;;;;;;;;;;5040257;28;20193;-90
2020/12/24 05:21:53;;;;;;;1.05;0.60;;;;;;;;;;5036130;28;20189;-91
2020/12/24 05:24:23;;;;;;;0.63;0.63;;;;;;;;;;5027747;28;20201;-91
2020/12/24 05:26:49;;;;;;;2.35;0.80;;;;;;;;;;5042718;28;20194;-90
2020/12/24 05:29:15;;;;;;;0.77;0.77;;;;;;;;;;5041626;28;20216;-91
2020/12/24 05:31:41;;;;;;;1.00;0.77;;;;;;;;;;5025023;28;20181;-91
2020/12/24 05:34:07;;;;;;;1.45;1.00;;;;;;;;;;5039792;28;20244;-91
2020/12/24 05:36:33;;;;;;;2.30;0.80;;;;;;;;;;5039637;28;20661;-90
2020/12/24 05:38:59;;;;;;;0.93;0.70;;;;;;;;;;5026970;28;20494;-90
2020/12/24 05:41:43;;;;;;;1.20;1.00;;;;;;;;;;5043681;28;20443;-90
2020/12/24 05:44:13;;;;;;;1.17;0.80;;;;;;;;;;5023006;28;20846;-91
2020/12/24 05:46:46;;;;;;;1.83;1.00;;;;;;;;;;5025362;28;20186;-89
2020/12/24 05:49:13;;;;;;;1.15;0.90;;;;;;;;;;5026385;28;20271;-90
2020/12/24 05:51:39;;;;;;;18.27;8.45;;;;;;;;;;5041568;28;20181;-90
2020/12/24 05:54:08;;;;;;;7.28;4.95;;;;;;;;;;5044052;28;20186;-90
2020/12/24 05:56:37;;;;;;;28.48;13.57;;;;;;;;;;5043144;28;20182;-90
2020/12/24 05:59:05;;;;;;;459.45;223.80;;;;;;;;;;5039622;28;20242;-90
2020/12/24 06:01:38;;;;;;;150.55;66.55;;;;;;;;;;5039176;28;20666;-89
2020/12/24 06:04:05;;;;;;;38.85;18.45;;;;;;;;;;5026216;28;20230;-90
2020/12/24 06:06:51;;;;;;;36.95;17.77;;;;;;;;;;5041205;28;20181;-90
2020/12/24 06:09:19;;;;;;;140.90;64.63;;;;;;;;;;5028678;28;20185;-90
2020/12/24 06:11:46;;;;;;;13.00;10.13;;;;;;;;;;5051197;28;20188;-90
2020/12/24 06:14:30;;;;;;;6.43;4.90;;;;;;;;;;5036699;28;20213;-90
2020/12/24 06:17:01;;;;;;;6.38;3.60;;;;;;;;;;5037483;28;20185;-89
2020/12/24 06:19:28;;;;;;;27.67;19.52;;;;;;;;;;5026343;28;20181;-90
2020/12/24 06:21:54;;;;;;;34.58;15.20;;;;;;;;;;5037030;28;20208;-90
2020/12/24 06:24:20;;;;;;;1.93;1.73;;;;;;;;;;5037270;28;20190;-90
2020/12/24 06:26:48;;;;;;;5.35;3.97;;;;;;;;;;5025571;28;20452;-90
2020/12/24 06:29:15;;;;;;;2.80;2.60;;;;;;;;;;5043114;28;20248;-90
2020/12/24 06:31:42;;;;;;;2.40;1.90;;;;;;;;;;5044222;28;20186;-90
2020/12/24 06:34:28;;;;;;;2.20;2.00;;;;;;;;;;5021889;28;20212;-89
2020/12/24 06:36:55;;;;;;;3.28;2.70;;;;;;;;;;5021407;28;20655;-90
2020/12/24 06:39:40;;;;;;;3.72;1.90;;;;;;;;;;5037590;28;20616;-90
2020/12/24 06:42:06;;;;;;;1.48;1.15;;;;;;;;;;5025782;28;20253;-90
2020/12/24 06:44:50;;;;;;;5.82;4.68;;;;;;;;;;5053399;28;20205;-90
2020/12/24 06:47:16;;;;;;;2.78;2.35;;;;;;;;;;5046277;28;20183;-89
2020/12/24 06:49:43;;;;;;;14.20;11.82;;;;;;;;;;5026670;28;20201;-89
2020/12/24 06:52:09;;;;;;;3.17;2.88;;;;;;;;;;5038090;28;20185;-90
2020/12/24 06:54:35;;;;;;;12.80;10.90;;;;;;;;;;5020507;28;20675;-89
2020/12/24 06:57:20;;;;;;;10.90;5.68;;;;;;;;;;5022169;28;20254;-89
2020/12/24 06:59:47;;;;;;;41.83;33.03;;;;;;;;;;5016503;28;20190;-90
2020/12/24 07:02:23;;;;;;;6.68;5.15;;;;;;;;;;5040979;28;20632;-90
2020/12/24 07:04:49;;;;;;;22.17;16.80;;;;;;;;;;5041906;28;20173;-89
2020/12/24 07:07:35;;;;;;;3.55;2.45;;;;;;;;;;5026586;28;20174;-89
2020/12/24 07:10:01;;;;;;;17.85;12.60;;;;;;;;;;5020829;28;20192;-89
2020/12/24 07:12:32;;;;;;;38.67;26.50;;;;;;;;;;5025370;28;20186;-89
2020/12/24 07:15:17;;;;;;;19.27;14.13;;;;;;;;;;5050033;28;20476;-89
2020/12/24 07:17:44;;;;;;;32.13;23.55;;;;;;;;;;5032160;28;20189;-89
2020/12/24 07:20:10;;;;;;;3.55;3.10;;;;;;;;;;5040302;28;20186;-89
2020/12/24 07:22:38;;;;;;;39.00;35.65;;;;;;;;;;5037118;28;20188;-89
2020/12/24 07:25:04;;;;;;;6.55;3.80;;;;;;;;;;5025237;28;20563;-89
2020/12/24 07:27:30;;;;;;;5.10;4.60;;;;;;;;;;5019685;28;20205;-89
2020/12/24 07:29:57;;;;;;;3.65;3.00;;;;;;;;;;5022594;28;20193;-89
2020/12/24 07:32:23;;;;;;;4.20;2.42;;;;;;;;;;5033810;28;20178;-88
2020/12/24 07:34:49;;;;;;;5.97;2.97;;;;;;;;;;5042386;28;20211;-89
2020/12/24 07:37:15;;;;;;;5.80;3.67;;;;;;;;;;5022832;28;20182;-89
2020/12/24 07:39:52;;;;;;;9.50;7.77;;;;;;;;;;5039617;28;20182;-88
2020/12/24 07:42:24;;;;;;;5.25;2.95;;;;;;;;;;5019980;28;20464;-89
2020/12/24 07:44:50;;;;;;;7.68;3.92;;;;;;;;;;5025458;28;20193;-89
2020/12/24 07:47:16;;;;;;;11.75;9.38;;;;;;;;;;5041558;28;20177;-90
2020/12/24 07:49:49;;;;;;;8.00;2.95;;;;;;;;;;5023530;28;20181;-91
2020/12/24 07:52:15;;;;;;;3.97;3.10;;;;;;;;;;5025116;28;20182;-89
2020/12/24 07:54:41;;;;;;;10.85;3.10;;;;;;;;;;5027195;28;20209;-89
2020/12/24 07:57:07;;;;;;;3.90;3.25;;;;;;;;;;5023697;28;20213;-88
2020/12/24 07:59:33;;;;;;;6.40;3.23;;;;;;;;;;5028389;28;20177;-86
2020/12/24 08:02:03;;;;;;;5.97;4.18;;;;;;;;;;5038721;28;20447;-87
2020/12/24 08:04:29;;;;;;;7.03;2.63;;;;;;;;;;5024920;28;20208;-87
2020/12/24 08:06:55;;;;;;;6.47;2.55;;;;;;;;;;5039138;28;20277;-88
2020/12/24 08:09:21;;;;;;;6.30;2.67;;;;;;;;;;5041321;28;20194;-87
2020/12/24 08:11:57;;;;;;;10.60;3.28;;;;;;;;;;5042779;28;20821;-89
2020/12/24 08:14:30;;;;;;;4.35;2.30;;;;;;;;;;5025170;28;20297;-86
2020/12/24 08:17:13;;;;;;;3.05;1.83;;;;;;;;;;5026514;28;20193;-87
2020/12/24 08:19:44;;;;;;;2.45;1.27;;;;;;;;;;5024352;28;20181;-89
2020/12/24 08:22:13;;;;;;;2.65;1.30;;;;;;;;;;5051075;28;20185;-90
2020/12/24 08:24:40;;;;;;;2.70;0.90;;;;;;;;;;5042693;28;20200;-91
2020/12/24 08:27:06;;;;;;;3.78;1.00;;;;;;;;;;5028738;28;20190;-88
2020/12/24 08:29:35;;;;;;;2.10;0.90;;;;;;;;;;5045961;28;20212;-90
2020/12/24 08:32:03;;;;;;;1.73;1.00;;;;;;;;;;5023082;28;20181;-90
2020/12/24 08:34:29;;;;;;;1.00;0.90;;;;;;;;;;5024749;28;20197;-91
2020/12/24 08:36:56;;;;;;;2.97;0.82;;;;;;;;;;5026525;28;20178;-94
2020/12/24 08:39:22;;;;;;;1.10;0.80;;;;;;;;;;5038957;28;20186;-93
2020/12/24 08:41:55;;;;;;;1.42;0.75;;;;;;;;;;5025606;28;20356;-93
2020/12/24 08:44:22;;;;;;;3.78;0.90;;;;;;;;;;5042627;28;20192;-94
2020/12/24 08:47:08;;;;;;;2.78;1.00;;;;;;;;;;5026767;28;20194;-93
2020/12/24 08:49:40;;;;;;;4.43;0.80;;;;;;;;;;5030071;28;20186;-91
2020/12/24 08:52:24;;;;;;;1.10;0.70;;;;;;;;;;5035780;28;20250;-94
2020/12/24 08:54:58;;;;;;;2.03;0.90;;;;;;;;;;5041627;28;20209;-93
2020/12/24 08:57:24;;;;;;;1.90;1.10;;;;;;;;;;5044135;28;20182;-92
2020/12/24 08:59:54;;;;;;;1.95;1.00;;;;;;;;;;5042264;28;20193;-91
2020/12/24 09:02:24;;;;;;;5.05;1.40;;;;;;;;;;5025058;28;20194;-93
2020/12/24 09:04:54;;;;;;;9.57;1.20;;;;;;;;;;5014613;28;20205;-91
2020/12/24 09:07:27;;;;;;;3.15;1.35;;;;;;;;;;5028604;28;20177;-91
2020/12/24 09:10:03;;;;;;;3.05;1.02;;;;;;;;;;5044631;28;20288;-93
2020/12/24 09:12:32;;;;;;;2.05;0.90;;;;;;;;;;5022415;28;20419;-95
2020/12/24 09:14:59;;;;;;;4.03;0.90;;;;;;;;;;5041763;28;20218;-94
2020/12/24 09:17:25;;;;;;;4.22;2.50;;;;;;;;;;5035734;28;20623;-94
2020/12/24 09:20:04;;;;;;;3.95;1.02;;;;;;;;;;5045172;28;20198;-91
2020/12/24 09:22:30;;;;;;;2.97;1.02;;;;;;;;;;5025023;28;20204;-88
2020/12/24 09:24:56;;;;;;;2.47;1.30;;;;;;;;;;5040053;28;20177;-91
2020/12/24 09:27:22;;;;;;;3.80;1.00;;;;;;;;;;5043033;28;20201;-92
2020/12/24 09:29:48;;;;;;;2.30;0.90;;;;;;;;;;5028382;28;20185;-92
2020/12/24 09:32:14;;;;;;;3.08;1.20;;;;;;;;;;5027736;28;20213;-94
2020/12/24 09:34:40;;;;;;;4.85;1.05;;;;;;;;;;5025037;28;20632;-93
2020/12/24 09:37:06;;;;;;;4.70;1.00;;;;;;;;;;5027038;28;20623;-94
2020/12/24 09:39:32;;;;;;;3.20;1.00;;;;;;;;;;5027254;28;20182;-95
2020/12/24 09:41:58;;;;;;;4.20;1.20;;;;;;;;;;5023673;28;20695;-94
2020/12/24 09:44:25;;;;;;;2.88;1.38;;;;;;;;;;5028344;28;20182;-95
2020/12/24 09:46:51;;;;;;;6.00;1.42;;;;;;;;;;5037442;28;20190;-94
2020/12/24 09:49:19;;;;;;;2.45;1.58;;;;;;;;;;5045377;28;20186;-95
2020/12/24 09:51:47;;;;;;;3.10;1.73;;;;;;;;;;5022386;28;20348;-95
2020/12/24 09:54:13;;;;;;;3.28;1.45;;;;;;;;;;5027042;28;20256;-95
2020/12/24 09:56:39;;;;;;;3.28;1.42;;;;;;;;;;5010939;28;20213;-95
2020/12/24 09:59:05;;;;;;;2.72;1.88;;;;;;;;;;5022758;28;20269;-96
2020/12/24 10:01:31;;;;;;;2.70;1.70;;;;;;;;;;5055935;28;20181;-96
2020/12/24 10:03:57;;;;;;;5.70;3.45;;;;;;;;;;5040252;28;20490;-96
2020/12/24 10:06:25;;;;;;;4.35;2.20;;;;;;;;;;5022005;28;20186;-94
2020/12/24 10:08:51;;;;;;;7.95;3.00;;;;;;;;;;5024471;28;20278;-96
2020/12/24 10:11:17;;;;;;;4.15;2.05;;;;;;;;;;5024053;28;20528;-95
2020/12/24 10:13:43;;;;;;;4.97;2.40;;;;;;;;;;5027457;28;20260;-94
2020/12/24 10:16:12;;;;;;;4.40;2.60;;;;;;;;;;5024940;28;20237;-95
2020/12/24 10:18:38;;;;;;;5.28;1.80;;;;;;;;;;5020883;28;20273;-94
2020/12/24 10:21:04;;;;;;;1.80;1.58;;;;;;;;;;5022784;28;20328;-95
2020/12/24 10:23:30;;;;;;;1.90;1.70;;;;;;;;;;5024287;28;20178;-95
2020/12/24 10:25:57;;;;;;;4.63;1.55;;;;;;;;;;5037495;28;20216;-93
2020/12/24 10:28:26;;;;;;;2.47;1.67;;;;;;;;;;5027388;28;20190;-96
2020/12/24 10:30:52;;;;;;;1.90;1.50;;;;;;;;;;5041538;28;20185;-92
2020/12/24 10:33:18;;;;;;;2.67;1.35;;;;;;;;;;5026419;28;20190;-94
2020/12/24 10:35:44;;;;;;;2.10;1.30;;;;;;;;;;5025752;28;20273;-93
2020/12/24 10:38:10;;;;;;;6.75;1.42;;;;;;;;;;5045621;28;20220;-87
2020/12/24 10:40:39;;;;;;;2.47;1.20;;;;;;;;;;5040081;28;20224;-94
2020/12/24 10:43:05;;;;;;;3.42;1.45;;;;;;;;;;5041611;28;20173;-89
2020/12/24 10:45:31;;;;;;;2.65;1.27;;;;;;;;;;5020438;28;20194;-84
2020/12/24 10:47:57;;;;;;;1.55;1.25;;;;;;;;;;5042235;28;20635;-88
2020/12/24 10:50:23;;;;;;;3.67;0.93;;;;;;;;;;5042664;28;20213;-89
2020/12/24 10:52:49;;;;;;;3.85;1.40;;;;;;;;;;5037403;28;20289;-89
2020/12/24 10:55:15;;;;;;;1.73;1.33;;;;;;;;;;5027277;28;20201;-87
2020/12/24 10:57:41;;;;;;;1.50;1.10;;;;;;;;;;5020585;28;20189;-88
2020/12/24 11:00:10;;;;;;;1.90;1.60;;;;;;;;;;5021632;28;20501;-89
2020/12/24 11:02:36;;;;;;;2.28;1.02;;;;;;;;;;5043363;28;20438;-88
2020/12/24 11:05:02;;;;;;;10.45;1.92;;;;;;;;;;5043093;28;20445;-87
2020/12/24 11:07:28;;;;;;;4.20;1.40;;;;;;;;;;5039081;28;20186;-86
2020/12/24 11:09:54;;;;;;;1.87;1.10;;;;;;;;;;5020267;28;20562;-90
2020/12/24 11:12:20;;;;;;;4.20;2.20;;;;;;;;;;5020421;28;20469;-87
2020/12/24 11:14:46;;;;;;;1.80;1.48;;;;;;;;;;5025670;28;20232;-86
2020/12/24 11:17:12;;;;;;;3.33;1.37;;;;;;;;;;5039975;28;20476;-87
2020/12/24 11:19:38;;;;;;;6.67;1.93;;;;;;;;;;5037458;28;20425;-86
2020/12/24 11:22:04;;;;;;;3.85;1.45;;;;;;;;;;5038139;28;20413;-93
2020/12/24 11:24:30;;;;;;;3.65;1.10;;;;;;;;;;5025525;28;20553;-90
2020/12/24 11:26:56;;;;;;;1.73;1.00;;;;;;;;;;5024547;28;20224;-87
2020/12/24 11:29:22;;;;;;;2.63;1.23;;;;;;;;;;5042177;28;20455;-86
2020/12/24 11:31:48;;;;;;;3.35;1.38;;;;;;;;;;5023246;28;20755;-89
2020/12/24 11:34:14;;;;;;;3.33;1.67;;;;;;;;;;5024526;28;20213;-91
2020/12/24 11:36:40;;;;;;;2.63;1.70;;;;;;;;;;5025342;28;20474;-90
2020/12/24 11:39:06;;;;;;;1.88;1.25;;;;;;;;;;5026886;28;20182;-91
2020/12/24 11:41:34;;;;;;;2.47;1.27;;;;;;;;;;5020693;28;20196;-89
2020/12/24 11:44:00;;;;;;;3.67;1.17;;;;;;;;;;5031685;28;20693;-90
2020/12/24 11:46:26;;;;;;;1.02;0.70;;;;;;;;;;5022266;28;20261;-86
2020/12/24 11:48:53;;;;;;;1.35;1.00;;;;;;;;;;5021229;28;20182;-87
2020/12/24 11:51:20;;;;;;;1.85;1.30;;;;;;;;;;5024979;28;20185;-86
2020/12/24 11:53:48;;;;;;;2.70;0.82;;;;;;;;;;5041776;28;20178;-87
2020/12/24 11:56:15;;;;;;;0.77;0.65;;;;;;;;;;5039173;28;20261;-88
2020/12/24 11:58:41;;;;;;;0.98;0.60;;;;;;;;;;5036124;28;20245;-86
2020/12/24 12:01:07;;;;;;;2.85;0.80;;;;;;;;;;5020504;28;20201;-86
2020/12/24 12:03:33;;;;;;;0.80;0.70;;;;;;;;;;5016508;28;20189;-86
2020/12/24 12:05:59;;;;;;;4.82;0.82;;;;;;;;;;5022385;28;20196;-87
2020/12/24 12:08:25;;;;;;;3.03;0.90;;;;;;;;;;5021792;28;20182;-88
2020/12/24 12:10:51;;;;;;;0.77;0.70;;;;;;;;;;5024665;28;20181;-88
2020/12/24 12:13:17;;;;;;;2.42;0.90;;;;;;;;;;5022284;28;20182;-86
2020/12/24 12:15:43;;;;;;;3.70;1.17;;;;;;;;;;5020151;28;20316;-88
2020/12/24 12:18:09;;;;;;;2.42;1.02;;;;;;;;;;5020378;28;20871;-91
2020/12/24 12:20:35;;;;;;;2.55;0.95;;;;;;;;;;5022084;28;20213;-89
2020/12/24 12:23:02;;;;;;;3.42;0.90;;;;;;;;;;5024046;28;20182;-87
2020/12/24 12:25:28;;;;;;;1.95;0.88;;;;;;;;;;5023501;28;20193;-86
2020/12/24 12:27:54;;;;;;;4.45;1.10;;;;;;;;;;5015493;28;20201;-86
2020/12/24 12:30:20;;;;;;;4.93;1.15;;;;;;;;;;5018208;28;20186;-86
2020/12/24 12:32:46;;;;;;;4.28;0.93;;;;;;;;;;5018556;28;20194;-86
2020/12/24 12:35:13;;;;;;;2.85;1.55;;;;;;;;;;5041276;28;20209;-87
2020/12/24 12:37:39;;;;;;;3.58;1.13;;;;;;;;;;5041785;28;20169;-87
2020/12/24 12:40:06;;;;;;;6.20;1.27;;;;;;;;;;5039995;28;20178;-88
2020/12/24 12:42:32;;;;;;;3.08;1.35;;;;;;;;;;5034398;28;20250;-89
2020/12/24 12:44:58;;;;;;;3.03;1.20;;;;;;;;;;5028571;28;20210;-89
2020/12/24 12:47:25;;;;;;;2.47;1.27;;;;;;;;;;5041184;28;20205;-88
2020/12/24 12:49:51;;;;;;;2.50;1.08;;;;;;;;;;5026954;28;20196;-87
2020/12/24 12:52:17;;;;;;;7.05;1.20;;;;;;;;;;5028170;28;20186;-88
2020/12/24 12:54:44;;;;;;;2.65;1.20;;;;;;;;;;5024605;28;20190;-89
2020/12/24 12:57:10;;;;;;;2.85;1.38;;;;;;;;;;5023040;28;20212;-87
2020/12/24 12:59:36;;;;;;;1.63;0.80;;;;;;;;;;5024776;28;20218;-88
2020/12/24 13:02:02;;;;;;;2.63;1.45;;;;;;;;;;5040734;28;20178;-88
2020/12/24 13:04:28;;;;;;;2.78;1.33;;;;;;;;;;5041626;28;20185;-88
2020/12/24 13:06:55;;;;;;;4.30;1.40;;;;;;;;;;5027563;28;20186;-87
2020/12/24 13:09:21;;;;;;;3.00;1.40;;;;;;;;;;5045578;28;20440;-86
2020/12/24 13:11:47;;;;;;;2.20;1.67;;;;;;;;;;5042775;28;20232;-86
2020/12/24 13:14:18;;;;;;;3.78;1.45;;;;;;;;;;5024960;28;20501;-86
2020/12/24 13:16:44;;;;;;;1.58;1.10;;;;;;;;;;5027684;28;20178;-87
2020/12/24 13:19:10;;;;;;;5.78;2.03;;;;;;;;;;5039412;28;20412;-87
2020/12/24 13:21:36;;;;;;;4.20;1.50;;;;;;;;;;5022272;28;20201;-87
2020/12/24 13:24:02;;;;;;;5.03;2.13;;;;;;;;;;5027001;28;20471;-88
2020/12/24 13:26:28;;;;;;;4.20;1.80;;;;;;;;;;5040309;28;20438;-86
2020/12/24 13:28:54;;;;;;;7.87;2.43;;;;;;;;;;5032471;28;20441;-86
2020/12/24 13:31:20;;;;;;;9.13;2.13;;;;;;;;;;5027959;28;20417;-85
2020/12/24 13:33:46;;;;;;;5.32;1.55;;;;;;;;;;5025966;28;20498;-86
2020/12/24 13:36:12;;;;;;;3.77;1.70;;;;;;;;;;5026814;28;20205;-86
2020/12/24 13:38:38;;;;;;;4.40;1.40;;;;;;;;;;5034897;28;20443;-86
2020/12/24 13:41:04;;;;;;;6.68;2.05;;;;;;;;;;5042579;28;20182;-86
2020/12/24 13:43:30;;;;;;;6.05;1.77;;;;;;;;;;5040498;28;20233;-87
2020/12/24 13:45:56;;;;;;;3.33;1.40;;;;;;;;;;5021846;28;20328;-85
2020/12/24 13:48:22;;;;;;;3.85;1.58;;;;;;;;;;5021604;28;20797;-85
2020/12/24 13:50:49;;;;;;;4.10;2.20;;;;;;;;;;5025478;28;20192;-85
2020/12/24 13:53:15;;;;;;;3.97;1.40;;;;;;;;;;5023433;28;20437;-87
2020/12/24 13:55:42;;;;;;;2.15;1.30;;;;;;;;;;5027611;28;20201;-86
2020/12/24 13:58:07;;;;;;;5.55;1.27;;;;;;;;;;5037780;28;20186;-85
2020/12/24 14:00:33;;;;;;;4.03;1.57;;;;;;;;;;5021191;28;20189;-86
2020/12/24 14:02:59;;;;;;;9.63;1.60;;;;;;;;;;5026729;28;20449;-85
2020/12/24 14:05:25;;;;;;;1.83;1.20;;;;;;;;;;5043573;28;20479;-85
2020/12/24 14:07:52;;;;;;;9.50;1.55;;;;;;;;;;5026179;28;20425;-88
2020/12/24 14:10:18;;;;;;;6.40;1.98;;;;;;;;;;5044284;28;20181;-86
2020/12/24 14:12:44;;;;;;;2.88;1.25;;;;;;;;;;5038355;28;20661;-86
2020/12/24 14:15:10;;;;;;;5.53;1.52;;;;;;;;;;5049377;28;20234;-86
2020/12/24 14:17:36;;;;;;;1.40;0.98;;;;;;;;;;5042009;28;20178;-85
2020/12/24 14:20:03;;;;;;;3.50;1.20;;;;;;;;;;5026677;28;20174;-86
2020/12/24 14:22:29;;;;;;;6.47;2.25;;;;;;;;;;5022649;28;20433;-86
2020/12/24 14:24:55;;;;;;;8.02;1.70;;;;;;;;;;5044140;28;20200;-85
2020/12/24 14:27:21;;;;;;;5.23;1.97;;;;;;;;;;5020751;28;20222;-86
2020/12/24 14:29:47;;;;;;;7.90;2.10;;;;;;;;;;5024200;28;20571;-84
2020/12/24 14:32:13;;;;;;;9.07;1.83;;;;;;;;;;5023692;28;20437;-85
2020/12/24 14:34:39;;;;;;;2.97;1.47;;;;;;;;;;5026539;28;20554;-81
2020/12/24 14:37:05;;;;;;;2.83;1.23;;;;;;;;;;5019644;28;20429;-84
2020/12/24 14:39:31;;;;;;;5.20;1.20;;;;;;;;;;5041174;28;20182;-83
2020/12/24 14:41:58;;;;;;;4.93;2.25;;;;;;;;;;5022305;28;20182;-84
2020/12/24 14:44:24;;;;;;;2.55;1.30;;;;;;;;;;5041695;28;20265;-86